createdAt,value
2022-09-12T04:00:19.553Z,4.35
2022-09-12T04:03:22.201Z,4.85
2022-09-12T04:06:24.221Z,5.10
2022-09-12T04:09:26.505Z,4.45
2022-09-12T04:12:29.625Z,4.82
2022-09-12T04:15:32.315Z,4.50
2022-09-12T04:18:35.514Z,4.50
2022-09-12T04:21:39.402Z,3.97
2022-09-12T04:24:41.422Z,3.85
2022-09-12T04:27:43.710Z,3.60
2022-09-12T04:30:45.764Z,3.67
2022-09-12T04:34:59.862Z,3.15
2022-09-12T04:38:02.275Z,3.40
2022-09-12T04:41:15.878Z,3.62
2022-09-12T04:44:18.542Z,3.97
2022-09-12T04:47:20.650Z,3.40
2022-09-12T04:50:22.937Z,3.83
2022-09-12T04:53:24.958Z,3.95
2022-09-12T04:56:28.762Z,4.28
2022-09-12T04:59:30.797Z,3.97
2022-09-12T05:02:34.863Z,4.10
2022-09-12T05:05:37.121Z,4.50
2022-09-12T05:08:39.421Z,4.53
2022-09-12T05:15:07.080Z,4.28
2022-09-12T05:18:09.149Z,3.95
2022-09-12T05:21:14.414Z,4.40
2022-09-12T05:24:16.570Z,4.10
2022-09-12T05:27:20.026Z,4.43
2022-09-12T05:30:22.203Z,3.92
2022-09-12T05:33:25.178Z,3.60
2022-09-12T05:36:29.371Z,3.83
2022-09-12T05:39:31.734Z,3.65
2022-09-12T05:42:33.853Z,3.30
2022-09-12T05:45:36.138Z,3.55
2022-09-12T05:48:40.327Z,3.87
2022-09-12T05:51:45.194Z,4.07
2022-09-12T05:54:48.513Z,4.22
2022-09-12T05:57:51.318Z,3.95
2022-09-12T06:00:53.343Z,4.00
2022-09-12T06:04:00.697Z,3.62
2022-09-12T06:07:02.779Z,4.30
2022-09-12T06:10:05.430Z,4.80
2022-09-12T06:13:08.622Z,3.87
2022-09-12T06:16:13.077Z,4.20
2022-09-12T06:19:18.152Z,3.65
2022-09-12T06:22:21.030Z,4.18
2022-09-12T06:25:23.121Z,4.18
2022-09-12T06:28:26.177Z,4.62
2022-09-12T06:31:31.170Z,4.07
2022-09-12T06:34:34.012Z,4.45
2022-09-12T06:37:36.121Z,4.72
2022-09-12T06:40:46.332Z,4.43
2022-09-12T06:43:48.595Z,4.05
2022-09-12T06:46:50.925Z,4.12
2022-09-12T06:49:52.940Z,3.85
2022-09-12T06:52:55.803Z,4.40
2022-09-12T06:56:03.020Z,3.55
2022-09-12T06:59:05.439Z,4.35
2022-09-12T07:02:09.082Z,4.15
2022-09-12T07:05:11.996Z,3.55
2022-09-12T07:08:15.529Z,3.62
2022-09-12T07:11:20.700Z,3.92
2022-09-12T07:14:24.130Z,3.28
2022-09-12T07:17:27.527Z,3.58
2022-09-12T07:20:33.140Z,3.33
2022-09-12T07:23:36.450Z,3.67
2022-09-12T07:26:40.566Z,3.60
2022-09-12T07:29:44.235Z,3.42
2022-09-12T07:32:46.266Z,3.12
2022-09-12T07:35:48.647Z,3.72
2022-09-12T07:38:57.606Z,3.45
2022-09-12T07:42:00.408Z,3.70
2022-09-12T07:45:02.862Z,3.70
2022-09-12T07:48:05.144Z,4.00
2022-09-12T07:51:10.774Z,3.55
2022-09-12T07:54:13.121Z,3.60
2022-09-12T07:57:15.695Z,3.78
2022-09-12T08:00:18.774Z,3.33
2022-09-12T08:03:21.076Z,3.20
2022-09-12T08:06:24.367Z,3.10
2022-09-12T08:09:26.682Z,3.30
2022-09-12T08:12:29.212Z,3.67
2022-09-12T08:15:31.571Z,3.47
2022-09-12T08:18:35.474Z,3.20
2022-09-12T08:21:37.782Z,3.53
2022-09-12T08:24:40.147Z,3.45
2022-09-12T08:27:43.037Z,3.55
2022-09-12T08:30:45.102Z,3.78
2022-09-12T08:33:47.596Z,3.78
2022-09-12T08:36:49.711Z,3.40
2022-09-12T08:39:52.944Z,4.05
2022-09-12T08:43:19.337Z,3.60
2022-09-12T08:47:26.732Z,3.60
2022-09-12T08:50:29.374Z,3.15
2022-09-12T08:53:35.965Z,3.53
2022-09-12T08:56:39.153Z,3.40
2022-09-12T08:59:44.772Z,3.20
2022-09-12T09:02:58.067Z,3.65
2022-09-12T09:06:14.090Z,3.25
2022-09-12T09:13:00.765Z,3.10
2022-09-12T09:16:11.891Z,3.45
2022-09-12T09:19:26.910Z,3.47
2022-09-12T09:22:38.384Z,2.92
2022-09-12T09:25:58.754Z,3.12
2022-09-12T09:29:14.540Z,2.97
2022-09-12T09:32:26.818Z,2.80
2022-09-12T09:35:45.680Z,2.62
2022-09-12T09:38:55.602Z,2.58
2022-09-12T09:42:19.278Z,3.00
2022-09-12T09:45:24.359Z,2.80
2022-09-12T09:48:38.565Z,2.70
2022-09-12T09:51:42.586Z,3.03
2022-09-12T09:54:50.181Z,2.70
2022-09-12T09:57:53.256Z,2.47
2022-09-12T10:01:02.776Z,2.90
2022-09-12T10:04:05.369Z,2.67
2022-09-12T10:07:18.705Z,3.08
2022-09-12T10:10:25.528Z,3.40
2022-09-12T10:13:51.550Z,2.72
2022-09-12T10:16:53.899Z,2.80
2022-09-12T10:20:17.315Z,2.50
2022-09-12T10:23:19.232Z,2.80
2022-09-12T10:26:21.808Z,2.40
2022-09-12T10:29:32.084Z,3.03
2022-09-12T10:32:39.846Z,2.90
2022-09-12T10:35:46.002Z,3.10
2022-09-12T10:38:51.033Z,2.83
2022-09-12T10:41:53.517Z,3.03
2022-09-12T10:44:57.033Z,3.10
2022-09-12T10:48:05.522Z,3.00
2022-09-12T10:51:28.011Z,3.12
2022-09-12T10:54:30.751Z,3.10
2022-09-12T10:58:01.713Z,2.72
2022-09-12T11:01:13.450Z,2.83
2022-09-12T11:04:24.769Z,2.70
2022-09-12T11:07:46.074Z,2.67
2022-09-12T11:10:59.642Z,2.65
2022-09-12T11:14:46.408Z,2.33
2022-09-12T11:17:48.349Z,2.10
2022-09-12T11:21:10.558Z,1.85
2022-09-12T11:24:23.258Z,2.60
2022-09-12T11:27:31.672Z,2.25
2022-09-12T11:30:46.900Z,2.17
2022-09-12T11:33:54.949Z,2.40
2022-09-12T11:37:22.159Z,2.50
2022-09-12T11:40:55.950Z,2.47
2022-09-12T11:44:21.182Z,2.80
2022-09-12T11:50:30.905Z,2.87
2022-09-12T11:53:38.853Z,3.70
2022-09-12T11:56:46.250Z,3.17
2022-09-12T11:59:58.125Z,3.53
2022-09-12T12:03:08.670Z,3.67
2022-09-12T12:06:19.381Z,3.55
2022-09-12T12:09:21.581Z,3.45
2022-09-12T12:12:27.568Z,3.40
2022-09-12T12:15:30.830Z,3.35
2022-09-12T12:18:36.563Z,3.10
2022-09-12T12:21:47.256Z,4.05
2022-09-12T12:25:28.883Z,3.37
2022-09-12T12:28:50.704Z,3.40
2022-09-12T12:32:02.051Z,3.00
2022-09-12T12:35:40.441Z,3.12
2022-09-12T12:38:42.982Z,3.08
2022-09-12T12:41:45.629Z,2.50
2022-09-12T12:44:51.381Z,3.20
2022-09-12T12:47:59.159Z,2.45
2022-09-12T12:51:29.452Z,2.53
2022-09-12T12:54:40.510Z,2.28
2022-09-12T12:57:51.001Z,2.58
2022-09-12T13:01:13.508Z,2.53
2022-09-12T13:04:19.671Z,2.40
2022-09-12T13:10:30.575Z,2.47
2022-09-12T13:13:58.037Z,2.00
2022-09-12T13:17:04.614Z,2.45
2022-09-12T13:20:27.232Z,2.10
2022-09-12T13:23:32.636Z,2.25
2022-09-12T13:26:41.889Z,2.53
2022-09-12T13:29:44.209Z,2.33
2022-09-12T13:32:46.264Z,2.40
2022-09-12T13:36:13.668Z,2.60
2022-09-12T13:39:27.646Z,2.30
2022-09-12T13:42:39.505Z,2.30
2022-09-12T13:45:43.649Z,2.37
2022-09-12T13:48:46.686Z,2.40
2022-09-12T13:52:01.776Z,2.10
2022-09-12T13:55:22.841Z,2.30
2022-09-12T13:58:35.018Z,2.10
2022-09-12T14:01:40.463Z,1.92
2022-09-12T14:05:06.533Z,2.65
2022-09-12T14:08:11.238Z,2.22
2022-09-12T14:11:30.861Z,2.37
2022-09-12T14:14:36.510Z,2.35
2022-09-12T14:20:42.695Z,2.05
2022-09-12T14:23:47.765Z,2.20
2022-09-12T14:26:54.367Z,2.35
2022-09-12T14:30:09.089Z,3.22
2022-09-12T14:33:11.027Z,2.25
2022-09-12T14:36:34.806Z,1.87
2022-09-12T14:39:42.849Z,1.80
2022-09-12T14:42:46.729Z,1.42
2022-09-12T14:45:59.430Z,2.03
2022-09-12T14:49:20.864Z,1.90
2022-09-12T14:52:33.113Z,1.80
2022-09-12T14:55:44.551Z,1.83
2022-09-12T14:58:46.778Z,1.40
2022-09-12T15:01:49.166Z,1.27
2022-09-12T15:05:16.187Z,1.62
2022-09-12T15:08:18.488Z,1.50
2022-09-12T15:11:23.260Z,1.45
2022-09-12T15:14:25.543Z,1.60
2022-09-12T15:17:27.561Z,1.60
2022-09-12T15:20:29.966Z,1.70
2022-09-12T15:23:42.770Z,1.50
2022-09-12T15:26:45.158Z,1.30
2022-09-12T15:29:47.184Z,1.50
2022-09-12T15:32:49.501Z,1.50
2022-09-12T15:35:52.542Z,1.20
2022-09-12T15:38:55.482Z,1.20
2022-09-12T15:41:57.516Z,1.20
2022-09-12T15:45:02.566Z,1.40
2022-09-12T15:48:04.893Z,1.40
2022-09-12T15:51:18.979Z,1.58
2022-09-12T15:54:21.412Z,1.20
2022-09-12T15:57:23.689Z,1.50
2022-09-12T16:00:26.011Z,1.42
2022-09-12T16:03:29.398Z,1.15
2022-09-12T16:06:37.201Z,1.45
